createdAt,value
2017-02-11T00:01:01.383Z,0
2017-02-11T00:02:12.490Z,0
2017-02-11T00:03:22.157Z,0
2017-02-11T00:04:32.056Z,0
2017-02-11T00:05:42.327Z,0
2017-02-11T00:06:52.043Z,0
2017-02-11T00:08:03.524Z,0
2017-02-11T00:09:15.898Z,0
2017-02-11T00:10:26.654Z,0
2017-02-11T00:11:37.232Z,0
2017-02-11T00:12:47.641Z,0
2017-02-11T00:13:59.178Z,0
2017-02-11T00:15:10.989Z,0
2017-02-11T00:16:21.741Z,0
2017-02-11T00:17:30.960Z,0
2017-02-11T00:18:40.622Z,0
2017-02-11T00:19:50.770Z,0
2017-02-11T00:20:59.764Z,0
2017-02-11T00:22:10.179Z,0
2017-02-11T00:23:20.476Z,0
2017-02-11T00:24:30.044Z,0
2017-02-11T00:25:39.781Z,0
2017-02-11T00:26:49.985Z,0
2017-02-11T00:27:59.799Z,0
2017-02-11T00:29:10.033Z,0
2017-02-11T00:30:20.209Z,0
2017-02-11T00:31:30.355Z,0
2017-02-11T00:32:39.328Z,0
2017-02-11T00:33:49.779Z,0
2017-02-11T00:35:00.436Z,0
2017-02-11T00:36:10.034Z,0
2017-02-11T00:37:19.008Z,0
2017-02-11T00:38:29.731Z,0
2017-02-11T00:39:41.362Z,0
2017-02-11T00:40:52.836Z,0
2017-02-11T00:42:03.365Z,0
2017-02-11T00:43:14.503Z,0
2017-02-11T00:44:24.186Z,0
2017-02-11T00:45:33.217Z,0
2017-02-11T00:46:42.165Z,0
2017-02-11T00:47:52.444Z,0
2017-02-11T00:49:01.810Z,0
2017-02-11T00:50:13.522Z,0
2017-02-11T00:51:26.260Z,0
2017-02-11T00:52:36.883Z,0
2017-02-11T00:53:47.531Z,0
2017-02-11T00:54:57.139Z,0
2017-02-11T00:56:09.562Z,0
2017-02-11T00:57:20.341Z,0
2017-02-11T00:58:30.055Z,0
2017-02-11T00:59:43.228Z,0
2017-02-11T01:00:55.152Z,0
2017-02-11T01:02:06.211Z,0
2017-02-11T01:03:17.537Z,0
2017-02-11T01:04:28.983Z,0
2017-02-11T01:05:43.349Z,0
2017-02-11T01:06:57.791Z,0
2017-02-11T01:08:09.708Z,0
2017-02-11T01:09:23.903Z,0
2017-02-11T01:10:35.672Z,0
2017-02-11T01:11:45.412Z,0
2017-02-11T01:12:58.084Z,0
2017-02-11T01:14:09.128Z,0
2017-02-11T01:15:18.077Z,0
2017-02-11T01:16:31.155Z,0
2017-02-11T01:17:40.208Z,0
2017-02-11T01:18:51.564Z,0
2017-02-11T01:20:03.711Z,0
2017-02-11T01:21:13.642Z,0
2017-02-11T01:22:24.043Z,0
2017-02-11T01:23:34.995Z,0
2017-02-11T01:24:44.030Z,0
2017-02-11T01:25:52.976Z,0
2017-02-11T01:27:02.334Z,0
2017-02-11T01:28:11.281Z,0
2017-02-11T01:29:20.235Z,0
2017-02-11T01:30:29.267Z,0
2017-02-11T01:31:38.623Z,0
2017-02-11T01:32:47.568Z,0
2017-02-11T01:33:56.515Z,0
2017-02-11T01:35:05.467Z,0
2017-02-11T01:36:14.434Z,0
2017-02-11T01:37:23.385Z,0
2017-02-11T01:38:32.426Z,0
2017-02-11T01:39:41.375Z,0
2017-02-11T01:40:50.317Z,0
2017-02-11T01:41:59.347Z,0
2017-02-11T01:43:08.294Z,0
2017-02-11T01:44:17.237Z,0
2017-02-11T01:45:26.189Z,0
2017-02-11T01:46:35.135Z,0
2017-02-11T01:47:44.081Z,0
2017-02-11T01:48:53.027Z,0
2017-02-11T01:50:02.381Z,0
2017-02-11T01:51:11.344Z,0
2017-02-11T01:52:20.693Z,0
2017-02-11T01:53:29.726Z,0
2017-02-11T01:54:38.670Z,0
2017-02-11T01:55:47.615Z,0
2017-02-11T01:56:56.562Z,0
2017-02-11T01:58:06.001Z,0
2017-02-11T01:59:14.945Z,0
2017-02-11T02:00:23.894Z,0
2017-02-11T02:01:32.839Z,0
2017-02-11T02:02:41.790Z,0
2017-02-11T02:03:50.736Z,0
2017-02-11T02:04:59.770Z,0
2017-02-11T02:06:08.803Z,0
2017-02-11T02:07:17.750Z,0
2017-02-11T02:08:26.696Z,0
2017-02-11T02:09:35.640Z,0
2017-02-11T02:10:44.674Z,0
2017-02-11T02:11:53.622Z,0
2017-02-11T02:13:02.564Z,0
2017-02-11T02:14:11.509Z,0
2017-02-11T02:15:20.461Z,0
2017-02-11T02:16:29.494Z,0
2017-02-11T02:17:38.528Z,0
2017-02-11T02:18:47.894Z,0
2017-02-11T02:19:56.837Z,0
2017-02-11T02:21:05.785Z,0
2017-02-11T02:22:14.736Z,0
2017-02-11T02:23:24.091Z,0
2017-02-11T02:24:33.061Z,0
2017-02-11T02:25:42.032Z,0
2017-02-11T02:26:51.081Z,0
2017-02-11T02:28:00.028Z,0
2017-02-11T02:29:08.981Z,0
2017-02-11T02:30:17.949Z,0
2017-02-11T02:31:26.898Z,0
2017-02-11T02:32:35.850Z,0
2017-02-11T02:33:44.802Z,0
2017-02-11T02:34:53.755Z,0
2017-02-11T02:36:02.710Z,0
2017-02-11T02:37:11.743Z,0
2017-02-11T02:38:20.690Z,0
2017-02-11T02:39:29.636Z,0
2017-02-11T02:40:38.985Z,0
2017-02-11T02:41:47.932Z,0
2017-02-11T02:42:57.703Z,0
2017-02-11T02:44:06.751Z,0
2017-02-11T02:45:15.701Z,0
2017-02-11T02:46:24.645Z,0
2017-02-11T02:47:33.598Z,0
2017-02-11T02:48:42.551Z,0
2017-02-11T02:49:51.502Z,0
2017-02-11T02:51:00.627Z,0
2017-02-11T02:52:09.576Z,0
2017-02-11T02:53:18.523Z,0
2017-02-11T02:54:27.475Z,0
2017-02-11T02:55:36.423Z,0
2017-02-11T02:56:45.375Z,0
2017-02-11T02:57:54.328Z,0
2017-02-11T02:59:03.777Z,0
2017-02-11T03:00:12.727Z,0
2017-02-11T03:01:21.671Z,0
2017-02-11T03:02:30.622Z,0
2017-02-11T03:03:39.571Z,0
2017-02-11T03:04:48.519Z,0
2017-02-11T03:05:57.587Z,0
2017-02-11T03:07:06.538Z,0
2017-02-11T03:08:15.577Z,0
2017-02-11T03:09:24.560Z,0
2017-02-11T03:10:33.510Z,0
2017-02-11T03:11:42.462Z,0
2017-02-11T03:12:51.501Z,0
2017-02-11T03:14:00.851Z,0
2017-02-11T03:15:09.807Z,0
2017-02-11T03:16:18.842Z,0
2017-02-11T03:17:27.790Z,0
2017-02-11T03:18:36.737Z,0
2017-02-11T03:19:46.084Z,0
2017-02-11T03:20:55.029Z,0
2017-02-11T03:22:03.976Z,0
2017-02-11T03:23:12.925Z,0
2017-02-11T03:24:21.875Z,0
2017-02-11T03:25:30.820Z,0
2017-02-11T03:26:39.766Z,0
2017-02-11T03:27:48.712Z,0
2017-02-11T03:28:57.655Z,0
2017-02-11T03:30:06.604Z,0
2017-02-11T03:31:15.552Z,0
2017-02-11T03:32:24.589Z,0
2017-02-11T03:33:33.534Z,0
2017-02-11T03:34:42.482Z,0
2017-02-11T03:35:51.427Z,0
2017-02-11T03:37:00.372Z,0
2017-02-11T03:38:09.321Z,0
2017-02-11T03:39:18.265Z,0
2017-02-11T03:40:27.216Z,0
2017-02-11T03:41:36.168Z,0
2017-02-11T03:42:45.125Z,0
2017-02-11T03:43:54.077Z,0
2017-02-11T03:45:03.025Z,0
2017-02-11T03:46:11.975Z,0
2017-02-11T03:47:20.929Z,0
2017-02-11T03:48:29.874Z,0
2017-02-11T03:49:38.818Z,0
2017-02-11T03:50:47.765Z,0
2017-02-11T03:51:56.802Z,0
2017-02-11T03:53:05.753Z,0
2017-02-11T03:54:14.704Z,0
2017-02-11T03:55:23.655Z,0
2017-02-11T03:56:32.609Z,0
2017-02-11T03:57:41.557Z,0
2017-02-11T03:58:50.506Z,0
2017-02-11T03:59:59.458Z,0
2017-02-11T04:01:08.408Z,0
2017-02-11T04:02:17.351Z,0
2017-02-11T04:03:26.298Z,0
2017-02-11T04:04:35.248Z,0
2017-02-11T04:05:44.196Z,0
2017-02-11T04:06:53.143Z,0
2017-02-11T04:08:02.093Z,0
2017-02-11T04:09:11.042Z,0
2017-02-11T04:10:19.993Z,0
2017-02-11T04:11:29.342Z,0
2017-02-11T04:12:38.288Z,0
2017-02-11T04:13:47.237Z,0
2017-02-11T04:14:56.177Z,0
2017-02-11T04:16:05.125Z,0
2017-02-11T04:17:14.076Z,0
2017-02-11T04:18:23.027Z,0
2017-02-11T04:19:31.979Z,0
2017-02-11T04:20:41.424Z,0
2017-02-11T04:21:50.364Z,0
2017-02-11T04:22:59.315Z,0
2017-02-11T04:24:08.260Z,0
2017-02-11T04:25:17.204Z,0
2017-02-11T04:26:26.147Z,0
2017-02-11T04:27:35.089Z,0
2017-02-11T04:28:44.037Z,0
2017-02-11T04:29:52.984Z,0
2017-02-11T04:31:01.931Z,0
2017-02-11T04:32:10.975Z,0
2017-02-11T04:33:19.946Z,0
2017-02-11T04:34:28.891Z,0
2017-02-11T04:35:37.887Z,0
2017-02-11T04:36:46.832Z,0
2017-02-11T04:37:55.868Z,0
2017-02-11T04:39:04.816Z,0
2017-02-11T04:40:13.761Z,0
2017-02-11T04:41:22.796Z,0
2017-02-11T04:42:31.749Z,0
2017-02-11T04:43:40.699Z,0
2017-02-11T04:44:49.650Z,0
2017-02-11T04:45:58.685Z,0
2017-02-11T04:47:07.639Z,0
2017-02-11T04:48:16.587Z,0
2017-02-11T04:49:25.623Z,0
2017-02-11T04:50:34.573Z,0
2017-02-11T04:51:43.521Z,0
2017-02-11T04:52:52.919Z,0
2017-02-11T04:54:02.273Z,0
2017-02-11T04:55:11.317Z,0
2017-02-11T04:56:20.715Z,0
2017-02-11T04:57:29.667Z,0
2017-02-11T04:58:38.613Z,0
2017-02-11T04:59:47.684Z,0
2017-02-11T05:00:56.632Z,0
2017-02-11T05:02:05.984Z,0
2017-02-11T05:03:14.929Z,0
2017-02-11T05:04:23.879Z,0
2017-02-11T05:05:32.829Z,0
2017-02-11T05:06:42.181Z,0
2017-02-11T05:07:51.131Z,0
2017-02-11T05:09:00.070Z,0
2017-02-11T05:10:09.022Z,0
2017-02-11T05:11:17.968Z,0
2017-02-11T05:12:26.911Z,0
2017-02-11T05:13:36.290Z,0
2017-02-11T05:14:45.232Z,0
2017-02-11T05:15:54.176Z,0
2017-02-11T05:17:03.121Z,0
2017-02-11T05:18:12.156Z,0
2017-02-11T05:19:21.197Z,0
2017-02-11T05:20:30.143Z,0
2017-02-11T05:21:39.089Z,0
2017-02-11T05:22:48.032Z,0
2017-02-11T05:23:56.981Z,0
2017-02-11T05:25:05.932Z,0
2017-02-11T05:26:14.967Z,0
2017-02-11T05:27:24.005Z,0
2017-02-11T05:28:32.953Z,0
2017-02-11T05:29:41.900Z,0
2017-02-11T05:30:50.947Z,0
2017-02-11T05:31:59.901Z,0
2017-02-11T05:33:08.900Z,0
2017-02-11T05:34:17.847Z,0
2017-02-11T05:35:26.792Z,0
2017-02-11T05:36:35.740Z,0
2017-02-11T05:37:44.684Z,0
2017-02-11T05:38:53.628Z,0
2017-02-11T05:40:02.609Z,0
2017-02-11T05:41:11.563Z,0
2017-02-11T05:42:20.600Z,0
2017-02-11T05:43:29.554Z,0
2017-02-11T05:44:38.500Z,0
2017-02-11T05:45:47.470Z,0
2017-02-11T05:46:56.511Z,0
2017-02-11T05:48:05.549Z,0
2017-02-11T05:49:14.492Z,0
2017-02-11T05:50:23.868Z,0
2017-02-11T05:51:32.815Z,0
2017-02-11T05:52:41.764Z,0
2017-02-11T05:53:50.713Z,0
2017-02-11T05:54:59.759Z,0
2017-02-11T05:56:08.796Z,0
2017-02-11T05:57:17.839Z,0
2017-02-11T05:58:26.789Z,0
2017-02-11T05:59:35.737Z,0
2017-02-11T06:00:44.682Z,0
2017-02-11T06:01:53.631Z,4
2017-02-11T06:03:02.574Z,4
2017-02-11T06:04:11.522Z,0
2017-02-11T06:05:20.471Z,4
2017-02-11T06:06:29.419Z,4
2017-02-11T06:07:38.767Z,4
2017-02-11T06:08:47.810Z,4
2017-02-11T06:09:56.756Z,4
2017-02-11T06:11:05.790Z,4
2017-02-11T06:12:14.735Z,8
2017-02-11T06:13:23.688Z,8
2017-02-11T06:14:32.636Z,8
2017-02-11T06:15:41.671Z,12
2017-02-11T06:16:51.030Z,16
2017-02-11T06:17:59.984Z,16
2017-02-11T06:19:08.931Z,20
2017-02-11T06:20:17.968Z,24
2017-02-11T06:21:26.915Z,24
2017-02-11T06:22:35.870Z,28
2017-02-11T06:23:44.817Z,28
2017-02-11T06:24:53.770Z,36
2017-02-11T06:26:02.721Z,40
2017-02-11T06:27:11.674Z,44
2017-02-11T06:28:20.711Z,48
2017-02-11T06:29:29.659Z,56
2017-02-11T06:30:38.609Z,56
2017-02-11T06:31:47.552Z,64
2017-02-11T06:32:56.589Z,72
2017-02-11T06:34:05.533Z,76
2017-02-11T06:35:14.475Z,88
2017-02-11T06:36:23.424Z,96
2017-02-11T06:37:32.369Z,100
2017-02-11T06:38:41.319Z,112
2017-02-11T06:39:50.355Z,124
2017-02-11T06:40:59.303Z,140
2017-02-11T06:42:08.662Z,152
2017-02-11T06:43:17.702Z,168
2017-02-11T06:44:26.647Z,184
2017-02-11T06:45:35.679Z,208
2017-02-11T06:46:44.628Z,236
2017-02-11T06:47:53.609Z,268
2017-02-11T06:49:02.645Z,300
2017-02-11T06:50:11.591Z,332
2017-02-11T06:51:20.545Z,368
2017-02-11T06:52:29.486Z,396
2017-02-11T06:53:38.430Z,428
2017-02-11T06:54:47.378Z,456
2017-02-11T06:55:56.330Z,484
2017-02-11T06:57:05.279Z,512
2017-02-11T06:58:14.224Z,532
2017-02-11T06:59:23.169Z,540
2017-02-11T07:00:32.118Z,548
2017-02-11T07:01:41.494Z,552
2017-02-11T07:02:50.441Z,560
2017-02-11T07:03:59.821Z,572
2017-02-11T07:05:08.782Z,592
2017-02-11T07:06:17.735Z,604
2017-02-11T07:07:26.772Z,604
2017-02-11T07:08:35.721Z,604
2017-02-11T07:09:44.663Z,600
2017-02-11T07:10:53.614Z,600
2017-02-11T07:12:02.561Z,608
2017-02-11T07:13:11.513Z,620
2017-02-11T07:14:20.871Z,636
2017-02-11T07:15:29.817Z,656
2017-02-11T07:16:38.761Z,672
2017-02-11T07:17:48.109Z,684
2017-02-11T07:18:57.060Z,704
2017-02-11T07:20:06.411Z,724
2017-02-11T07:21:15.358Z,748
2017-02-11T07:22:24.300Z,776
2017-02-11T07:23:33.249Z,812
2017-02-11T07:24:42.601Z,844
2017-02-11T07:25:51.577Z,876
2017-02-11T07:27:00.613Z,912
2017-02-11T07:28:09.563Z,960
2017-02-11T07:29:18.511Z,1004
2017-02-11T07:30:27.463Z,1028
2017-02-11T07:31:36.586Z,1044
2017-02-11T07:32:45.533Z,1048
2017-02-11T07:33:54.478Z,1028
2017-02-11T07:35:03.422Z,1000
2017-02-11T07:36:12.371Z,980
2017-02-11T07:37:21.319Z,968
2017-02-11T07:38:30.351Z,960
2017-02-11T07:39:39.295Z,948
2017-02-11T07:40:48.243Z,944
2017-02-11T07:41:57.921Z,944
2017-02-11T07:43:06.867Z,948
2017-02-11T07:44:17.208Z,956
2017-02-11T07:45:27.485Z,972
2017-02-11T07:46:37.248Z,1012
2017-02-11T07:47:47.295Z,1056
2017-02-11T07:48:56.780Z,1104
2017-02-11T07:50:07.002Z,1148
2017-02-11T07:51:17.205Z,1188
2017-02-11T07:52:27.105Z,1224
2017-02-11T07:53:36.153Z,1256
2017-02-11T07:54:46.084Z,1288
2017-02-11T07:55:55.247Z,1312
2017-02-11T07:57:05.533Z,1340
2017-02-11T07:58:16.629Z,1384
2017-02-11T07:59:27.394Z,1416
2017-02-11T08:00:36.338Z,1452
2017-02-11T08:01:46.250Z,1484
2017-02-11T08:02:55.784Z,1528
2017-02-11T08:04:04.725Z,1576
2017-02-11T08:05:14.786Z,1620
2017-02-11T08:06:23.734Z,1656
2017-02-11T08:07:32.770Z,1684
2017-02-11T08:08:42.116Z,1716
2017-02-11T08:09:51.162Z,1748
2017-02-11T08:11:00.714Z,1784
2017-02-11T08:12:09.665Z,1820
2017-02-11T08:13:19.727Z,1832
2017-02-11T08:14:29.546Z,1832
2017-02-11T08:15:39.472Z,1824
2017-02-11T08:16:48.433Z,1816
2017-02-11T08:17:58.343Z,1808
2017-02-11T08:19:07.805Z,1804
2017-02-11T08:20:16.750Z,1792
2017-02-11T08:21:25.695Z,1772
2017-02-11T08:22:35.638Z,1752
2017-02-11T08:23:45.093Z,1744
2017-02-11T08:24:55.530Z,1748
2017-02-11T08:26:04.614Z,1768
2017-02-11T08:27:14.409Z,1792
2017-02-11T08:28:23.623Z,1828
2017-02-11T08:29:32.739Z,1856
2017-02-11T08:30:41.685Z,1892
2017-02-11T08:31:50.632Z,1908
2017-02-11T08:32:59.613Z,1916
2017-02-11T08:34:08.560Z,1912
2017-02-11T08:35:17.511Z,1896
2017-02-11T08:36:27.978Z,1880
2017-02-11T08:37:36.928Z,1864
2017-02-11T08:38:45.952Z,1836
2017-02-11T08:39:56.292Z,1804
2017-02-11T08:41:07.254Z,1772
2017-02-11T08:42:17.351Z,1768
2017-02-11T08:43:26.559Z,1728
2017-02-11T08:44:35.917Z,1712
2017-02-11T08:45:46.543Z,1676
2017-02-11T08:46:56.304Z,1728
2017-02-11T08:48:05.338Z,1732
2017-02-11T08:49:14.287Z,1744
2017-02-11T08:50:23.280Z,1764
2017-02-11T08:51:33.535Z,1800
2017-02-11T08:52:43.202Z,1824
2017-02-11T08:53:52.705Z,1860
2017-02-11T08:55:01.670Z,1872
2017-02-11T08:56:11.033Z,1900
2017-02-11T08:57:20.010Z,1928
2017-02-11T08:58:29.027Z,1944
2017-02-11T08:59:38.034Z,1976
2017-02-11T09:00:47.130Z,1984
2017-02-11T09:01:56.109Z,1976
2017-02-11T09:03:05.196Z,1980
2017-02-11T09:04:14.170Z,1968
2017-02-11T09:05:23.162Z,1936
2017-02-11T09:06:32.188Z,1940
2017-02-11T09:07:41.842Z,1936
2017-02-11T09:08:50.812Z,1964
2017-02-11T09:09:59.761Z,1988
2017-02-11T09:11:10.094Z,2048
2017-02-11T09:12:19.327Z,2116
2017-02-11T09:13:28.461Z,2168
2017-02-11T09:14:37.508Z,2224
2017-02-11T09:15:47.179Z,2272
2017-02-11T09:16:56.125Z,2296
2017-02-11T09:18:05.803Z,2312
2017-02-11T09:19:15.678Z,2308
2017-02-11T09:20:25.036Z,2308
2017-02-11T09:21:33.990Z,2320
2017-02-11T09:22:42.944Z,2312
2017-02-11T09:23:51.896Z,2320
2017-02-11T09:25:00.845Z,2324
2017-02-11T09:26:10.200Z,2340
2017-02-11T09:27:19.159Z,2352
2017-02-11T09:28:28.111Z,2364
2017-02-11T09:29:37.065Z,2388
2017-02-11T09:30:46.057Z,2408
2017-02-11T09:31:55.012Z,2448
2017-02-11T09:33:04.367Z,2484
2017-02-11T09:34:13.318Z,2524
2017-02-11T09:35:22.264Z,2564
2017-02-11T09:36:31.626Z,2596
2017-02-11T09:37:40.607Z,2648
2017-02-11T09:38:49.589Z,2728
2017-02-11T09:39:58.641Z,2744
2017-02-11T09:41:07.612Z,2756
2017-02-11T09:42:16.707Z,2752
2017-02-11T09:43:25.690Z,2752
2017-02-11T09:44:34.759Z,2756
2017-02-11T09:45:43.822Z,2744
2017-02-11T09:46:52.793Z,2740
2017-02-11T09:48:02.183Z,2720
2017-02-11T09:49:11.176Z,2820
2017-02-11T09:50:20.161Z,2808
2017-02-11T09:51:29.233Z,2888
2017-02-11T09:52:38.201Z,2916
2017-02-11T09:53:47.155Z,2976
2017-02-11T09:54:56.133Z,3024
2017-02-11T09:56:05.217Z,3064
2017-02-11T09:57:14.245Z,3096
2017-02-11T09:58:23.861Z,3124
2017-02-11T09:59:58.618Z,3112
2017-02-11T10:01:07.570Z,3128
2017-02-11T10:02:16.521Z,3064
2017-02-11T10:03:26.898Z,3028
2017-02-11T10:04:35.996Z,2948
2017-02-11T10:05:45.356Z,2848
2017-02-11T10:06:54.388Z,2756
2017-02-11T10:08:04.021Z,2684
2017-02-11T10:09:13.645Z,2564
2017-02-11T10:10:22.610Z,2496
2017-02-11T10:11:31.857Z,2404
2017-02-11T10:12:40.802Z,2340
2017-02-11T10:13:49.756Z,2292
2017-02-11T10:14:58.706Z,2276
2017-02-11T10:16:07.743Z,2192
2017-02-11T10:17:17.518Z,2132
2017-02-11T10:18:26.468Z,2092
2017-02-11T10:19:35.414Z,2088
2017-02-11T10:20:44.365Z,2116
2017-02-11T10:21:53.318Z,2124
2017-02-11T10:23:02.671Z,2128
2017-02-11T10:24:11.618Z,2168
2017-02-11T10:25:20.568Z,2140
2017-02-11T10:26:29.520Z,2172
2017-02-11T10:27:38.468Z,2200
2017-02-11T10:28:47.426Z,2156
2017-02-11T10:29:56.545Z,2108
2017-02-11T10:31:05.900Z,2048
2017-02-11T10:32:15.335Z,2060
2017-02-11T10:33:24.295Z,2120
2017-02-11T10:34:33.255Z,2140
2017-02-11T10:35:42.359Z,2100
2017-02-11T10:36:51.312Z,2096
2017-02-11T10:38:00.955Z,2204
2017-02-11T10:39:09.901Z,2252
2017-02-11T10:40:18.850Z,2220
2017-02-11T10:41:27.798Z,2196
2017-02-11T10:42:37.513Z,2268
2017-02-11T10:43:47.616Z,2280
2017-02-11T10:44:57.621Z,2280
2017-02-11T10:46:06.928Z,2432
2017-02-11T10:47:16.191Z,2548
2017-02-11T10:48:25.137Z,2568
2017-02-11T10:49:34.090Z,2644
2017-02-11T10:50:43.122Z,2760
2017-02-11T10:51:52.447Z,2896
2017-02-11T10:53:01.724Z,2924
2017-02-11T10:54:10.672Z,2892
2017-02-11T10:55:19.777Z,2836
2017-02-11T10:56:28.729Z,2704
2017-02-11T10:57:37.674Z,2596
2017-02-11T10:58:46.625Z,2528
2017-02-11T10:59:56.413Z,2472
2017-02-11T11:01:06.643Z,2388
2017-02-11T11:02:15.599Z,2300
2017-02-11T11:03:24.545Z,2260
2017-02-11T11:04:33.497Z,2284
2017-02-11T11:05:42.538Z,2256
2017-02-11T11:06:51.652Z,2268
2017-02-11T11:08:01.112Z,2264
2017-02-11T11:09:10.064Z,2332
2017-02-11T11:10:19.020Z,2396
2017-02-11T11:11:28.375Z,2512
2017-02-11T11:12:37.330Z,2672
2017-02-11T11:13:46.318Z,2812
2017-02-11T11:14:55.271Z,2956
2017-02-11T11:16:04.230Z,3228
2017-02-11T11:17:13.175Z,3480
2017-02-11T11:18:22.130Z,3800
2017-02-11T11:19:31.073Z,4136
2017-02-11T11:20:40.111Z,4488
2017-02-11T11:21:49.060Z,4788
2017-02-11T11:22:58.006Z,4932
2017-02-11T11:24:06.959Z,5024
2017-02-11T11:25:15.907Z,4960
2017-02-11T11:26:24.880Z,4908
2017-02-11T11:27:33.917Z,4568
2017-02-11T11:28:42.875Z,4108
2017-02-11T11:29:51.818Z,3904
2017-02-11T11:31:00.768Z,3864
2017-02-11T11:32:09.820Z,3696
2017-02-11T11:33:19.183Z,3468
2017-02-11T11:34:28.144Z,3348
2017-02-11T11:35:37.090Z,3444
2017-02-11T11:36:46.040Z,3612
2017-02-11T11:37:54.989Z,3696
2017-02-11T11:39:03.935Z,3684
2017-02-11T11:40:12.974Z,3812
2017-02-11T11:41:21.927Z,3940
2017-02-11T11:42:30.876Z,3824
2017-02-11T11:43:39.826Z,3256
2017-02-11T11:44:48.865Z,2892
2017-02-11T11:45:57.827Z,2604
2017-02-11T11:47:06.866Z,2404
2017-02-11T11:48:15.815Z,2252
2017-02-11T11:49:24.762Z,2200
2017-02-11T11:50:33.711Z,2224
2017-02-11T11:51:43.066Z,2288
2017-02-11T11:52:52.014Z,2372
2017-02-11T11:54:00.965Z,2564
2017-02-11T11:55:09.919Z,2776
2017-02-11T11:56:18.863Z,2952
2017-02-11T11:57:27.810Z,3344
2017-02-11T11:58:36.761Z,3632
2017-02-11T11:59:45.706Z,4124
2017-02-11T12:00:55.093Z,4108
2017-02-11T12:02:04.448Z,4208
2017-02-11T12:03:13.804Z,4124
2017-02-11T12:04:22.756Z,3924
2017-02-11T12:05:32.114Z,3784
2017-02-11T12:06:41.067Z,3752
2017-02-11T12:07:50.112Z,3584
2017-02-11T12:08:59.151Z,3496
2017-02-11T12:10:08.105Z,3388
2017-02-11T12:11:17.053Z,3176
2017-02-11T12:12:26.000Z,3256
2017-02-11T12:13:35.353Z,3244
2017-02-11T12:14:44.310Z,3164
2017-02-11T12:15:53.261Z,3052
2017-02-11T12:17:02.211Z,3072
2017-02-11T12:18:11.160Z,3068
2017-02-11T12:19:20.510Z,3028
2017-02-11T12:20:29.455Z,2968
2017-02-11T12:21:38.584Z,2952
2017-02-11T12:22:47.540Z,2844
2017-02-11T12:23:56.491Z,2772
2017-02-11T12:25:05.443Z,2804
2017-02-11T12:26:14.476Z,2840
2017-02-11T12:27:23.429Z,2796
2017-02-11T12:28:32.374Z,2788
2017-02-11T12:29:41.323Z,2728
2017-02-11T12:30:50.274Z,2636
2017-02-11T12:31:59.227Z,2468
2017-02-11T12:33:08.175Z,2372
2017-02-11T12:34:17.123Z,2428
2017-02-11T12:35:26.073Z,2364
2017-02-11T12:36:35.024Z,2432
2017-02-11T12:37:43.976Z,2384
2017-02-11T12:38:52.927Z,2484
2017-02-11T12:40:02.286Z,2508
2017-02-11T12:41:11.237Z,2508
2017-02-11T12:42:20.187Z,2456
2017-02-11T12:43:29.255Z,2492
2017-02-11T12:44:38.209Z,2500
2017-02-11T12:45:47.155Z,2492
2017-02-11T12:46:56.101Z,2620
2017-02-11T12:48:05.054Z,2496
2017-02-11T12:49:14.006Z,2480
2017-02-11T12:50:22.952Z,2308
2017-02-11T12:51:31.901Z,2252
2017-02-11T12:52:41.026Z,1980
2017-02-11T12:53:49.979Z,1672
2017-02-11T12:54:58.928Z,1456
2017-02-11T12:56:07.879Z,1272
2017-02-11T12:57:16.875Z,1176
2017-02-11T12:58:25.824Z,1060
2017-02-11T12:59:34.774Z,1020
2017-02-11T13:00:43.846Z,1004
2017-02-11T13:01:52.791Z,980
2017-02-11T13:03:02.151Z,992
2017-02-11T13:04:11.099Z,1036
2017-02-11T13:05:20.045Z,1092
2017-02-11T13:06:28.994Z,1156
2017-02-11T13:07:38.039Z,1264
2017-02-11T13:08:47.001Z,1308
2017-02-11T13:09:56.038Z,1356
2017-02-11T13:11:04.990Z,1392
2017-02-11T13:12:13.940Z,1380
2017-02-11T13:13:22.890Z,1440
2017-02-11T13:14:31.852Z,1532
2017-02-11T13:15:40.803Z,1544
2017-02-11T13:16:49.753Z,1576
2017-02-11T13:17:58.704Z,1548
2017-02-11T13:19:07.655Z,1552
2017-02-11T13:20:16.603Z,1568
2017-02-11T13:21:25.556Z,1592
2017-02-11T13:22:34.510Z,1612
2017-02-11T13:23:43.467Z,1620
2017-02-11T13:24:52.414Z,1632
2017-02-11T13:26:01.365Z,1596
2017-02-11T13:27:10.400Z,1628
2017-02-11T13:28:19.436Z,1700
2017-02-11T13:29:28.390Z,1888
2017-02-11T13:30:37.426Z,2028
2017-02-11T13:31:46.375Z,2184
2017-02-11T13:32:55.731Z,2400
2017-02-11T13:34:04.679Z,2508
2017-02-11T13:35:13.628Z,2604
2017-02-11T13:36:22.580Z,2684
2017-02-11T13:37:31.531Z,2504
2017-02-11T13:38:40.573Z,2312
2017-02-11T13:39:49.591Z,2264
2017-02-11T13:40:58.540Z,2292
2017-02-11T13:42:07.489Z,2260
2017-02-11T13:43:16.441Z,2044
2017-02-11T13:44:25.389Z,1892
2017-02-11T13:45:34.335Z,1824
2017-02-11T13:46:43.282Z,1848
2017-02-11T13:47:52.223Z,1856
2017-02-11T13:49:01.346Z,1812
2017-02-11T13:50:10.298Z,1840
2017-02-11T13:51:19.249Z,1816
2017-02-11T13:52:28.282Z,1848
2017-02-11T13:53:37.256Z,1792
2017-02-11T13:54:46.205Z,1720
2017-02-11T13:55:55.159Z,1652
2017-02-11T13:57:04.512Z,1452
2017-02-11T13:58:14.127Z,1328
2017-02-11T13:59:23.163Z,1176
2017-02-11T14:00:32.109Z,1032
2017-02-11T14:01:41.064Z,1008
2017-02-11T14:02:50.017Z,964
2017-02-11T14:03:58.970Z,1004
2017-02-11T14:05:08.333Z,1112
2017-02-11T14:06:17.369Z,1248
2017-02-11T14:07:26.321Z,1352
2017-02-11T14:08:35.271Z,1392
2017-02-11T14:09:44.222Z,1512
2017-02-11T14:10:53.171Z,1524
2017-02-11T14:12:02.129Z,1548
2017-02-11T14:13:11.079Z,1524
2017-02-11T14:14:20.032Z,1508
2017-02-11T14:15:28.982Z,1600
2017-02-11T14:16:37.934Z,1696
2017-02-11T14:17:46.886Z,1660
2017-02-11T14:18:55.838Z,1664
2017-02-11T14:20:05.195Z,1660
2017-02-11T14:21:14.144Z,1540
2017-02-11T14:22:23.093Z,1540
2017-02-11T14:23:32.045Z,1528
2017-02-11T14:24:40.994Z,1456
2017-02-11T14:25:50.354Z,1360
2017-02-11T14:26:59.307Z,1272
2017-02-11T14:28:08.260Z,1192
2017-02-11T14:29:17.204Z,1196
2017-02-11T14:30:26.152Z,1192
2017-02-11T14:31:35.138Z,1180
2017-02-11T14:32:44.089Z,1196
2017-02-11T14:33:53.032Z,1156
2017-02-11T14:35:01.988Z,1128
2017-02-11T14:36:11.341Z,1052
2017-02-11T14:37:20.288Z,1016
2017-02-11T14:38:29.319Z,976
2017-02-11T14:39:38.267Z,1000
2017-02-11T14:40:47.219Z,1088
2017-02-11T14:41:56.171Z,1024
2017-02-11T14:43:05.126Z,936
2017-02-11T14:44:14.075Z,896
2017-02-11T14:45:23.032Z,872
2017-02-11T14:46:32.069Z,824
2017-02-11T14:47:41.018Z,828
2017-02-11T14:48:49.968Z,868
2017-02-11T14:49:58.918Z,824
2017-02-11T14:51:07.871Z,776
2017-02-11T14:52:16.829Z,748
2017-02-11T14:53:25.776Z,740
2017-02-11T14:54:34.723Z,756
2017-02-11T14:55:43.672Z,724
2017-02-11T14:56:52.620Z,692
2017-02-11T14:58:01.575Z,692
2017-02-11T14:59:10.520Z,672
2017-02-11T15:00:19.464Z,620
2017-02-11T15:01:28.822Z,580
2017-02-11T15:02:37.775Z,580
2017-02-11T15:03:47.135Z,564
2017-02-11T15:04:56.085Z,568
2017-02-11T15:06:05.030Z,548
2017-02-11T15:07:13.978Z,504
2017-02-11T15:08:23.018Z,464
2017-02-11T15:09:31.967Z,476
2017-02-11T15:10:40.914Z,456
2017-02-11T15:11:49.875Z,456
2017-02-11T15:12:59.236Z,440
2017-02-11T15:14:08.188Z,396
2017-02-11T15:15:17.134Z,400
2017-02-11T15:16:26.083Z,372
2017-02-11T15:17:35.031Z,356
2017-02-11T15:18:43.976Z,336
2017-02-11T15:19:52.929Z,316
2017-02-11T15:21:02.282Z,324
2017-02-11T15:22:11.319Z,324
2017-02-11T15:23:20.271Z,304
2017-02-11T15:24:29.219Z,304
2017-02-11T15:25:38.170Z,288
2017-02-11T15:26:47.122Z,280
2017-02-11T15:27:56.071Z,264
2017-02-11T15:29:05.108Z,248
2017-02-11T15:30:14.087Z,252
2017-02-11T15:31:23.035Z,240
2017-02-11T15:32:32.390Z,220
2017-02-11T15:33:41.339Z,212
2017-02-11T15:34:50.298Z,196
2017-02-11T15:35:59.251Z,192
2017-02-11T15:37:08.200Z,188
2017-02-11T15:38:17.146Z,176
2017-02-11T15:39:26.100Z,164
2017-02-11T15:40:35.136Z,160
2017-02-11T15:41:44.085Z,152
2017-02-11T15:42:53.121Z,144
2017-02-11T15:44:02.483Z,136
2017-02-11T15:45:11.437Z,124
2017-02-11T15:46:20.385Z,116
2017-02-11T15:47:29.423Z,108
2017-02-11T15:48:38.779Z,104
2017-02-11T15:49:47.737Z,96
2017-02-11T15:50:56.776Z,92
2017-02-11T15:52:05.725Z,88
2017-02-11T15:53:14.683Z,88
2017-02-11T15:54:23.627Z,80
2017-02-11T15:55:32.574Z,76
2017-02-11T15:56:41.523Z,72
2017-02-11T15:57:50.879Z,64
2017-02-11T15:58:59.826Z,56
2017-02-11T16:00:08.781Z,56
2017-02-11T16:01:17.730Z,52
2017-02-11T16:02:27.381Z,48
2017-02-11T16:03:38.279Z,40
2017-02-11T16:04:52.673Z,36
2017-02-11T16:06:04.254Z,36
2017-02-11T16:07:13.199Z,32